sensor_id;sensor_type;location;lat;lon;timestamp;P1;durP1;ratioP1;P2;durP2;ratioP2
6757;SDS011;3416;53.074;8.822;2022-11-23T00:01:12;11.82;;;6.50;;
6757;SDS011;3416;53.074;8.822;2022-11-23T00:03:40;11.00;;;7.25;;
6757;SDS011;3416;53.074;8.822;2022-11-23T00:06:07;14.48;;;8.10;;
6757;SDS011;3416;53.074;8.822;2022-11-23T00:08:34;13.07;;;8.27;;
6757;SDS011;3416;53.074;8.822;2022-11-23T00:11:00;10.77;;;6.30;;
6757;SDS011;3416;53.074;8.822;2022-11-23T00:13:27;7.70;;;5.93;;
6757;SDS011;3416;53.074;8.822;2022-11-23T00:15:56;13.38;;;7.05;;
6757;SDS011;3416;53.074;8.822;2022-11-23T00:18:22;14.68;;;9.40;;
6757;SDS011;3416;53.074;8.822;2022-11-23T00:20:49;8.25;;;6.25;;
6757;SDS011;3416;53.074;8.822;2022-11-23T00:23:16;12.32;;;7.50;;
6757;SDS011;3416;53.074;8.822;2022-11-23T00:25:43;13.68;;;6.95;;
6757;SDS011;3416;53.074;8.822;2022-11-23T00:28:10;8.88;;;7.40;;
6757;SDS011;3416;53.074;8.822;2022-11-23T00:30:37;9.57;;;6.72;;
6757;SDS011;3416;53.074;8.822;2022-11-23T00:33:05;14.63;;;6.85;;
6757;SDS011;3416;53.074;8.822;2022-11-23T00:35:32;11.32;;;7.97;;
6757;SDS011;3416;53.074;8.822;2022-11-23T00:37:59;9.13;;;6.72;;
6757;SDS011;3416;53.074;8.822;2022-11-23T00:40:26;18.48;;;8.35;;
6757;SDS011;3416;53.074;8.822;2022-11-23T00:42:53;11.38;;;7.15;;
6757;SDS011;3416;53.074;8.822;2022-11-23T00:45:19;12.10;;;6.60;;
6757;SDS011;3416;53.074;8.822;2022-11-23T00:47:46;11.98;;;6.28;;
6757;SDS011;3416;53.074;8.822;2022-11-23T00:50:15;9.00;;;7.20;;
6757;SDS011;3416;53.074;8.822;2022-11-23T00:52:42;10.65;;;7.15;;
6757;SDS011;3416;53.074;8.822;2022-11-23T00:55:09;11.93;;;7.53;;
6757;SDS011;3416;53.074;8.822;2022-11-23T00:57:36;9.05;;;6.50;;
6757;SDS011;3416;53.074;8.822;2022-11-23T01:00:03;20.00;;;6.85;;
6757;SDS011;3416;53.074;8.822;2022-11-23T01:02:32;9.23;;;6.35;;
6757;SDS011;3416;53.074;8.822;2022-11-23T01:05:00;9.02;;;7.20;;
6757;SDS011;3416;53.074;8.822;2022-11-23T01:07:29;14.57;;;7.20;;
6757;SDS011;3416;53.074;8.822;2022-11-23T01:09:55;11.90;;;6.95;;
6757;SDS011;3416;53.074;8.822;2022-11-23T01:12:22;11.50;;;6.38;;
6757;SDS011;3416;53.074;8.822;2022-11-23T01:14:51;10.63;;;7.22;;
6757;SDS011;3416;53.074;8.822;2022-11-23T01:17:18;13.18;;;6.22;;
6757;SDS011;3416;53.074;8.822;2022-11-23T01:19:45;6.68;;;5.97;;
6757;SDS011;3416;53.074;8.822;2022-11-23T01:22:12;9.20;;;6.25;;
6757;SDS011;3416;53.074;8.822;2022-11-23T01:24:40;6.97;;;5.75;;
6757;SDS011;3416;53.074;8.822;2022-11-23T01:27:07;14.95;;;6.88;;
6757;SDS011;3416;53.074;8.822;2022-11-23T01:29:36;15.57;;;6.60;;
6757;SDS011;3416;53.074;8.822;2022-11-23T01:32:03;10.70;;;6.88;;
6757;SDS011;3416;53.074;8.822;2022-11-23T01:34:30;7.60;;;5.85;;
6757;SDS011;3416;53.074;8.822;2022-11-23T01:36:56;8.52;;;6.47;;
6757;SDS011;3416;53.074;8.822;2022-11-23T01:39:23;9.05;;;5.90;;
6757;SDS011;3416;53.074;8.822;2022-11-23T01:41:52;7.63;;;5.88;;
6757;SDS011;3416;53.074;8.822;2022-11-23T01:44:29;8.52;;;5.70;;
6757;SDS011;3416;53.074;8.822;2022-11-23T01:46:57;6.93;;;5.28;;
6757;SDS011;3416;53.074;8.822;2022-11-23T01:49:25;7.53;;;5.38;;
6757;SDS011;3416;53.074;8.822;2022-11-23T01:51:55;13.70;;;6.07;;
6757;SDS011;3416;53.074;8.822;2022-11-23T01:54:26;7.53;;;5.32;;
6757;SDS011;3416;53.074;8.822;2022-11-23T01:56:57;6.22;;;4.93;;
6757;SDS011;3416;53.074;8.822;2022-11-23T01:59:29;9.32;;;5.55;;
6757;SDS011;3416;53.074;8.822;2022-11-23T02:01:56;9.57;;;5.13;;
6757;SDS011;3416;53.074;8.822;2022-11-23T02:04:26;9.93;;;4.80;;
6757;SDS011;3416;53.074;8.822;2022-11-23T02:06:57;7.90;;;5.18;;
6757;SDS011;3416;53.074;8.822;2022-11-23T02:09:26;7.45;;;4.97;;
6757;SDS011;3416;53.074;8.822;2022-11-23T02:11:55;9.80;;;5.90;;
6757;SDS011;3416;53.074;8.822;2022-11-23T02:14:25;6.43;;;5.05;;
6757;SDS011;3416;53.074;8.822;2022-11-23T02:16:52;6.20;;;5.18;;
6757;SDS011;3416;53.074;8.822;2022-11-23T02:19:20;5.63;;;4.95;;
6757;SDS011;3416;53.074;8.822;2022-11-23T02:21:56;7.25;;;5.10;;
6757;SDS011;3416;53.074;8.822;2022-11-23T02:24:24;9.13;;;4.20;;
6757;SDS011;3416;53.074;8.822;2022-11-23T02:27:00;11.40;;;5.50;;
6757;SDS011;3416;53.074;8.822;2022-11-23T02:29:28;11.63;;;5.30;;
6757;SDS011;3416;53.074;8.822;2022-11-23T02:31:57;7.85;;;4.43;;
6757;SDS011;3416;53.074;8.822;2022-11-23T02:34:24;8.02;;;5.28;;
6757;SDS011;3416;53.074;8.822;2022-11-23T02:36:51;6.25;;;4.57;;
6757;SDS011;3416;53.074;8.822;2022-11-23T02:39:21;6.00;;;5.40;;
6757;SDS011;3416;53.074;8.822;2022-11-23T02:41:53;8.88;;;5.32;;
6757;SDS011;3416;53.074;8.822;2022-11-23T02:44:24;6.15;;;4.60;;
6757;SDS011;3416;53.074;8.822;2022-11-23T02:46:56;10.82;;;4.75;;
6757;SDS011;3416;53.074;8.822;2022-11-23T02:49:23;8.15;;;5.03;;
6757;SDS011;3416;53.074;8.822;2022-11-23T02:51:50;6.70;;;3.72;;
6757;SDS011;3416;53.074;8.822;2022-11-23T02:54:17;7.60;;;4.80;;
6757;SDS011;3416;53.074;8.822;2022-11-23T02:56:44;15.07;;;5.43;;
6757;SDS011;3416;53.074;8.822;2022-11-23T02:59:11;6.90;;;5.25;;
6757;SDS011;3416;53.074;8.822;2022-11-23T03:01:39;6.30;;;4.18;;
6757;SDS011;3416;53.074;8.822;2022-11-23T03:04:07;7.00;;;5.07;;
6757;SDS011;3416;53.074;8.822;2022-11-23T03:06:34;6.38;;;4.88;;
6757;SDS011;3416;53.074;8.822;2022-11-23T03:09:01;5.55;;;4.43;;
6757;SDS011;3416;53.074;8.822;2022-11-23T03:11:28;12.02;;;5.18;;
6757;SDS011;3416;53.074;8.822;2022-11-23T03:13:55;5.80;;;5.05;;
6757;SDS011;3416;53.074;8.822;2022-11-23T03:16:22;9.32;;;5.95;;
6757;SDS011;3416;53.074;8.822;2022-11-23T03:18:50;9.82;;;5.55;;
6757;SDS011;3416;53.074;8.822;2022-11-23T03:21:17;6.30;;;4.47;;
6757;SDS011;3416;53.074;8.822;2022-11-23T03:23:44;6.82;;;4.68;;
6757;SDS011;3416;53.074;8.822;2022-11-23T03:26:11;6.00;;;5.47;;
6757;SDS011;3416;53.074;8.822;2022-11-23T03:28:38;6.00;;;4.63;;
6757;SDS011;3416;53.074;8.822;2022-11-23T03:31:04;9.07;;;6.43;;
6757;SDS011;3416;53.074;8.822;2022-11-23T03:33:31;8.27;;;4.75;;
6757;SDS011;3416;53.074;8.822;2022-11-23T03:35:59;9.23;;;5.32;;
6757;SDS011;3416;53.074;8.822;2022-11-23T03:38:27;11.25;;;4.65;;
6757;SDS011;3416;53.074;8.822;2022-11-23T03:40:54;7.70;;;6.18;;
6757;SDS011;3416;53.074;8.822;2022-11-23T03:43:20;5.43;;;4.25;;
6757;SDS011;3416;53.074;8.822;2022-11-23T03:45:47;7.55;;;5.50;;
6757;SDS011;3416;53.074;8.822;2022-11-23T03:48:14;8.20;;;5.35;;
6757;SDS011;3416;53.074;8.822;2022-11-23T03:50:42;8.43;;;4.55;;
6757;SDS011;3416;53.074;8.822;2022-11-23T03:53:11;6.15;;;5.10;;
6757;SDS011;3416;53.074;8.822;2022-11-23T03:55:38;6.05;;;5.38;;
6757;SDS011;3416;53.074;8.822;2022-11-23T03:58:04;9.88;;;4.40;;
6757;SDS011;3416;53.074;8.822;2022-11-23T04:00:31;13.23;;;4.68;;
6757;SDS011;3416;53.074;8.822;2022-11-23T04:02:58;11.85;;;5.05;;
6757;SDS011;3416;53.074;8.822;2022-11-23T04:05:25;6.25;;;4.75;;
6757;SDS011;3416;53.074;8.822;2022-11-23T04:07:52;5.95;;;4.13;;
6757;SDS011;3416;53.074;8.822;2022-11-23T04:10:21;6.95;;;4.53;;
6757;SDS011;3416;53.074;8.822;2022-11-23T04:12:49;10.50;;;4.75;;
6757;SDS011;3416;53.074;8.822;2022-11-23T04:15:17;5.63;;;4.22;;
6757;SDS011;3416;53.074;8.822;2022-11-23T04:17:44;7.65;;;4.28;;
6757;SDS011;3416;53.074;8.822;2022-11-23T04:20:11;7.28;;;4.75;;
6757;SDS011;3416;53.074;8.822;2022-11-23T04:22:38;6.63;;;4.95;;
6757;SDS011;3416;53.074;8.822;2022-11-23T04:25:06;6.75;;;3.90;;
6757;SDS011;3416;53.074;8.822;2022-11-23T04:27:34;6.75;;;4.25;;
6757;SDS011;3416;53.074;8.822;2022-11-23T04:30:01;9.63;;;4.15;;
6757;SDS011;3416;53.074;8.822;2022-11-23T04:32:28;7.47;;;4.07;;
6757;SDS011;3416;53.074;8.822;2022-11-23T04:34:55;6.15;;;4.35;;
6757;SDS011;3416;53.074;8.822;2022-11-23T04:37:22;4.57;;;3.45;;
6757;SDS011;3416;53.074;8.822;2022-11-23T04:39:49;10.07;;;4.88;;
6757;SDS011;3416;53.074;8.822;2022-11-23T04:42:16;6.97;;;4.03;;
6757;SDS011;3416;53.074;8.822;2022-11-23T04:44:44;8.00;;;4.25;;
6757;SDS011;3416;53.074;8.822;2022-11-23T04:47:11;7.93;;;3.92;;
6757;SDS011;3416;53.074;8.822;2022-11-23T04:49:38;4.78;;;3.70;;
6757;SDS011;3416;53.074;8.822;2022-11-23T04:52:05;9.80;;;4.57;;
6757;SDS011;3416;53.074;8.822;2022-11-23T04:54:32;9.40;;;5.75;;
6757;SDS011;3416;53.074;8.822;2022-11-23T04:56:58;4.60;;;4.20;;
6757;SDS011;3416;53.074;8.822;2022-11-23T04:59:25;5.15;;;3.60;;
6757;SDS011;3416;53.074;8.822;2022-11-23T05:01:53;11.77;;;4.25;;
6757;SDS011;3416;53.074;8.822;2022-11-23T05:04:20;4.78;;;3.50;;
6757;SDS011;3416;53.074;8.822;2022-11-23T05:06:47;5.95;;;3.30;;
6757;SDS011;3416;53.074;8.822;2022-11-23T05:09:14;4.93;;;3.50;;
6757;SDS011;3416;53.074;8.822;2022-11-23T05:11:41;4.25;;;3.10;;
6757;SDS011;3416;53.074;8.822;2022-11-23T05:14:08;5.68;;;3.70;;
6757;SDS011;3416;53.074;8.822;2022-11-23T05:16:35;4.88;;;3.58;;
6757;SDS011;3416;53.074;8.822;2022-11-23T05:19:03;6.88;;;3.30;;
6757;SDS011;3416;53.074;8.822;2022-11-23T05:21:30;5.30;;;3.15;;
6757;SDS011;3416;53.074;8.822;2022-11-23T05:23:56;3.83;;;2.60;;
6757;SDS011;3416;53.074;8.822;2022-11-23T05:26:23;4.05;;;3.20;;
6757;SDS011;3416;53.074;8.822;2022-11-23T05:28:50;7.57;;;3.30;;
6757;SDS011;3416;53.074;8.822;2022-11-23T05:31:17;5.13;;;3.42;;
6757;SDS011;3416;53.074;8.822;2022-11-23T05:33:44;4.50;;;4.07;;
6757;SDS011;3416;53.074;8.822;2022-11-23T05:36:12;3.78;;;2.92;;
6757;SDS011;3416;53.074;8.822;2022-11-23T05:38:39;4.00;;;3.03;;
6757;SDS011;3416;53.074;8.822;2022-11-23T05:41:06;7.43;;;4.60;;
6757;SDS011;3416;53.074;8.822;2022-11-23T05:43:33;4.13;;;3.38;;
6757;SDS011;3416;53.074;8.822;2022-11-23T05:46:00;8.05;;;3.63;;
6757;SDS011;3416;53.074;8.822;2022-11-23T05:48:29;7.15;;;3.50;;
6757;SDS011;3416;53.074;8.822;2022-11-23T05:50:55;5.03;;;3.83;;
6757;SDS011;3416;53.074;8.822;2022-11-23T05:53:24;10.68;;;4.00;;
6757;SDS011;3416;53.074;8.822;2022-11-23T05:55:51;11.90;;;3.33;;
6757;SDS011;3416;53.074;8.822;2022-11-23T05:58:18;8.15;;;4.47;;
6757;SDS011;3416;53.074;8.822;2022-11-23T06:00:44;9.25;;;3.40;;
6757;SDS011;3416;53.074;8.822;2022-11-23T06:03:11;4.80;;;2.85;;
6757;SDS011;3416;53.074;8.822;2022-11-23T06:05:38;8.65;;;3.70;;
6757;SDS011;3416;53.074;8.822;2022-11-23T06:08:05;6.90;;;3.60;;
6757;SDS011;3416;53.074;8.822;2022-11-23T06:10:33;6.55;;;3.60;;
6757;SDS011;3416;53.074;8.822;2022-11-23T06:13:01;3.90;;;3.50;;
6757;SDS011;3416;53.074;8.822;2022-11-23T06:15:28;6.80;;;3.75;;
6757;SDS011;3416;53.074;8.822;2022-11-23T06:17:57;9.95;;;3.35;;
6757;SDS011;3416;53.074;8.822;2022-11-23T06:20:25;7.80;;;3.15;;
6757;SDS011;3416;53.074;8.822;2022-11-23T06:22:53;5.93;;;3.45;;
6757;SDS011;3416;53.074;8.822;2022-11-23T06:25:23;12.00;;;3.90;;
6757;SDS011;3416;53.074;8.822;2022-11-23T06:27:53;7.43;;;3.80;;
6757;SDS011;3416;53.074;8.822;2022-11-23T06:30:20;8.50;;;4.10;;
6757;SDS011;3416;53.074;8.822;2022-11-23T06:32:47;8.30;;;3.58;;
6757;SDS011;3416;53.074;8.822;2022-11-23T06:35:17;9.05;;;4.88;;
6757;SDS011;3416;53.074;8.822;2022-11-23T06:37:46;9.00;;;5.78;;
6757;SDS011;3416;53.074;8.822;2022-11-23T06:40:19;5.25;;;4.25;;
6757;SDS011;3416;53.074;8.822;2022-11-23T06:42:46;8.07;;;5.57;;
6757;SDS011;3416;53.074;8.822;2022-11-23T06:45:15;5.55;;;4.00;;
6757;SDS011;3416;53.074;8.822;2022-11-23T06:47:42;8.75;;;4.80;;
6757;SDS011;3416;53.074;8.822;2022-11-23T06:50:09;5.15;;;4.65;;
6757;SDS011;3416;53.074;8.822;2022-11-23T06:52:36;9.70;;;4.63;;
6757;SDS011;3416;53.074;8.822;2022-11-23T06:55:03;5.57;;;4.07;;
6757;SDS011;3416;53.074;8.822;2022-11-23T06:57:30;9.77;;;4.25;;
6757;SDS011;3416;53.074;8.822;2022-11-23T06:59:57;8.48;;;3.65;;
6757;SDS011;3416;53.074;8.822;2022-11-23T07:02:25;6.55;;;4.55;;
6757;SDS011;3416;53.074;8.822;2022-11-23T07:04:53;5.93;;;3.80;;
6757;SDS011;3416;53.074;8.822;2022-11-23T07:07:20;6.80;;;4.72;;
6757;SDS011;3416;53.074;8.822;2022-11-23T07:09:47;8.15;;;4.90;;
6757;SDS011;3416;53.074;8.822;2022-11-23T07:12:14;11.07;;;7.03;;
6757;SDS011;3416;53.074;8.822;2022-11-23T07:14:41;7.20;;;4.60;;
6757;SDS011;3416;53.074;8.822;2022-11-23T07:17:08;7.93;;;4.90;;
6757;SDS011;3416;53.074;8.822;2022-11-23T07:19:39;5.03;;;3.67;;
6757;SDS011;3416;53.074;8.822;2022-11-23T07:22:06;8.32;;;3.90;;
6757;SDS011;3416;53.074;8.822;2022-11-23T07:24:33;7.68;;;3.42;;
6757;SDS011;3416;53.074;8.822;2022-11-23T07:27:00;4.47;;;3.80;;
6757;SDS011;3416;53.074;8.822;2022-11-23T07:29:26;7.70;;;3.70;;
6757;SDS011;3416;53.074;8.822;2022-11-23T07:31:53;9.00;;;3.72;;
6757;SDS011;3416;53.074;8.822;2022-11-23T07:34:20;6.88;;;3.75;;
6757;SDS011;3416;53.074;8.822;2022-11-23T07:36:48;6.70;;;3.10;;
6757;SDS011;3416;53.074;8.822;2022-11-23T07:39:15;6.80;;;4.13;;
6757;SDS011;3416;53.074;8.822;2022-11-23T07:41:42;6.35;;;2.60;;
6757;SDS011;3416;53.074;8.822;2022-11-23T07:44:08;7.05;;;3.80;;
6757;SDS011;3416;53.074;8.822;2022-11-23T07:46:35;10.75;;;4.18;;
6757;SDS011;3416;53.074;8.822;2022-11-23T07:49:02;6.93;;;3.42;;
6757;SDS011;3416;53.074;8.822;2022-11-23T07:51:29;8.25;;;4.47;;
6757;SDS011;3416;53.074;8.822;2022-11-23T07:53:58;7.85;;;3.67;;
6757;SDS011;3416;53.074;8.822;2022-11-23T07:56:24;9.27;;;3.67;;
6757;SDS011;3416;53.074;8.822;2022-11-23T07:58:51;8.95;;;4.70;;
6757;SDS011;3416;53.074;8.822;2022-11-23T08:01:18;10.80;;;3.08;;
6757;SDS011;3416;53.074;8.822;2022-11-23T08:03:46;4.13;;;3.33;;
6757;SDS011;3416;53.074;8.822;2022-11-23T08:06:14;5.03;;;2.70;;
6757;SDS011;3416;53.074;8.822;2022-11-23T08:08:41;4.63;;;2.65;;
6757;SDS011;3416;53.074;8.822;2022-11-23T08:11:10;3.58;;;2.60;;
6757;SDS011;3416;53.074;8.822;2022-11-23T08:13:38;11.77;;;2.92;;
6757;SDS011;3416;53.074;8.822;2022-11-23T08:16:06;8.75;;;2.75;;
6757;SDS011;3416;53.074;8.822;2022-11-23T08:18:32;4.60;;;2.40;;
6757;SDS011;3416;53.074;8.822;2022-11-23T08:20:59;6.80;;;3.25;;
6757;SDS011;3416;53.074;8.822;2022-11-23T08:23:27;11.60;;;4.72;;
6757;SDS011;3416;53.074;8.822;2022-11-23T08:25:54;6.53;;;3.40;;
6757;SDS011;3416;53.074;8.822;2022-11-23T08:28:23;6.60;;;3.15;;
6757;SDS011;3416;53.074;8.822;2022-11-23T08:30:50;5.25;;;3.40;;
6757;SDS011;3416;53.074;8.822;2022-11-23T08:33:16;10.60;;;3.05;;
6757;SDS011;3416;53.074;8.822;2022-11-23T08:35:43;8.07;;;3.25;;
6757;SDS011;3416;53.074;8.822;2022-11-23T08:38:10;12.73;;;3.75;;
6757;SDS011;3416;53.074;8.822;2022-11-23T08:40:37;7.63;;;4.03;;
6757;SDS011;3416;53.074;8.822;2022-11-23T08:43:04;6.63;;;4.75;;
6757;SDS011;3416;53.074;8.822;2022-11-23T08:45:33;3.78;;;3.13;;
6757;SDS011;3416;53.074;8.822;2022-11-23T08:48:00;4.82;;;3.45;;
6757;SDS011;3416;53.074;8.822;2022-11-23T08:50:28;6.93;;;3.25;;
6757;SDS011;3416;53.074;8.822;2022-11-23T08:52:55;8.65;;;3.45;;
6757;SDS011;3416;53.074;8.822;2022-11-23T08:55:23;8.68;;;3.83;;
6757;SDS011;3416;53.074;8.822;2022-11-23T08:57:53;4.10;;;3.55;;
6757;SDS011;3416;53.074;8.822;2022-11-23T09:00:20;6.25;;;3.58;;
6757;SDS011;3416;53.074;8.822;2022-11-23T09:02:49;8.63;;;3.65;;
6757;SDS011;3416;53.074;8.822;2022-11-23T09:05:16;4.15;;;2.80;;
6757;SDS011;3416;53.074;8.822;2022-11-23T09:07:42;6.38;;;3.47;;
6757;SDS011;3416;53.074;8.822;2022-11-23T09:10:09;5.35;;;3.38;;
6757;SDS011;3416;53.074;8.822;2022-11-23T09:12:36;6.55;;;4.78;;
6757;SDS011;3416;53.074;8.822;2022-11-23T09:15:04;7.22;;;3.83;;
6757;SDS011;3416;53.074;8.822;2022-11-23T09:17:31;4.78;;;3.00;;
6757;SDS011;3416;53.074;8.822;2022-11-23T09:19:59;5.00;;;3.20;;
6757;SDS011;3416;53.074;8.822;2022-11-23T09:22:26;4.75;;;3.25;;
6757;SDS011;3416;53.074;8.822;2022-11-23T09:24:53;6.80;;;3.25;;
6757;SDS011;3416;53.074;8.822;2022-11-23T09:27:20;4.80;;;3.05;;
6757;SDS011;3416;53.074;8.822;2022-11-23T09:29:47;8.45;;;3.40;;
6757;SDS011;3416;53.074;8.822;2022-11-23T09:32:14;4.72;;;3.05;;
6757;SDS011;3416;53.074;8.822;2022-11-23T09:34:41;8.50;;;3.80;;
6757;SDS011;3416;53.074;8.822;2022-11-23T09:37:10;4.53;;;3.55;;
6757;SDS011;3416;53.074;8.822;2022-11-23T09:39:37;11.95;;;3.85;;
6757;SDS011;3416;53.074;8.822;2022-11-23T09:45:10;6.20;;;3.38;;
6757;SDS011;3416;53.074;8.822;2022-11-23T09:47:47;7.47;;;5.85;;
6757;SDS011;3416;53.074;8.822;2022-11-23T09:50:29;5.20;;;2.72;;
6757;SDS011;3416;53.074;8.822;2022-11-23T09:53:10;6.30;;;3.67;;
6757;SDS011;3416;53.074;8.822;2022-11-23T09:55:40;6.63;;;2.85;;
6757;SDS011;3416;53.074;8.822;2022-11-23T09:58:09;5.63;;;2.65;;
6757;SDS011;3416;53.074;8.822;2022-11-23T10:00:41;6.13;;;3.10;;
6757;SDS011;3416;53.074;8.822;2022-11-23T10:03:12;6.72;;;3.85;;
6757;SDS011;3416;53.074;8.822;2022-11-23T10:05:40;3.33;;;2.95;;
6757;SDS011;3416;53.074;8.822;2022-11-23T10:08:16;6.05;;;3.10;;
6757;SDS011;3416;53.074;8.822;2022-11-23T10:10:51;8.88;;;3.28;;
6757;SDS011;3416;53.074;8.822;2022-11-23T10:13:28;8.05;;;2.88;;
6757;SDS011;3416;53.074;8.822;2022-11-23T10:16:05;6.93;;;3.28;;
6757;SDS011;3416;53.074;8.822;2022-11-23T10:18:47;6.20;;;3.25;;
6757;SDS011;3416;53.074;8.822;2022-11-23T10:21:25;6.65;;;3.10;;
6757;SDS011;3416;53.074;8.822;2022-11-23T10:24:04;11.90;;;4.00;;
6757;SDS011;3416;53.074;8.822;2022-11-23T10:26:40;9.45;;;3.92;;
6757;SDS011;3416;53.074;8.822;2022-11-23T10:29:10;8.35;;;3.03;;
6757;SDS011;3416;53.074;8.822;2022-11-23T10:31:40;4.20;;;2.30;;
6757;SDS011;3416;53.074;8.822;2022-11-23T10:34:11;6.70;;;3.00;;
6757;SDS011;3416;53.074;8.822;2022-11-23T10:36:40;9.43;;;3.08;;
6757;SDS011;3416;53.074;8.822;2022-11-23T10:39:16;3.42;;;2.50;;
6757;SDS011;3416;53.074;8.822;2022-11-23T10:41:48;6.00;;;2.92;;
6757;SDS011;3416;53.074;8.822;2022-11-23T10:47:02;4.13;;;3.05;;
6757;SDS011;3416;53.074;8.822;2022-11-23T10:49:30;7.35;;;3.58;;
6757;SDS011;3416;53.074;8.822;2022-11-23T10:51:59;7.00;;;3.88;;
6757;SDS011;3416;53.074;8.822;2022-11-23T10:54:30;4.47;;;2.60;;
6757;SDS011;3416;53.074;8.822;2022-11-23T10:57:00;8.13;;;3.53;;
6757;SDS011;3416;53.074;8.822;2022-11-23T10:59:30;5.63;;;2.67;;
6757;SDS011;3416;53.074;8.822;2022-11-23T11:04:44;7.10;;;4.55;;
6757;SDS011;3416;53.074;8.822;2022-11-23T11:07:20;6.35;;;3.97;;
6757;SDS011;3416;53.074;8.822;2022-11-23T11:12:56;5.88;;;3.47;;
6757;SDS011;3416;53.074;8.822;2022-11-23T11:15:25;7.07;;;2.65;;
6757;SDS011;3416;53.074;8.822;2022-11-23T11:17:53;6.15;;;3.40;;
6757;SDS011;3416;53.074;8.822;2022-11-23T11:20:23;5.25;;;2.85;;
6757;SDS011;3416;53.074;8.822;2022-11-23T11:22:57;6.45;;;3.03;;
6757;SDS011;3416;53.074;8.822;2022-11-23T11:25:27;6.90;;;3.33;;
6757;SDS011;3416;53.074;8.822;2022-11-23T11:27:57;11.95;;;5.22;;
6757;SDS011;3416;53.074;8.822;2022-11-23T11:30:27;5.15;;;2.97;;
6757;SDS011;3416;53.074;8.822;2022-11-23T11:33:04;6.18;;;3.45;;
6757;SDS011;3416;53.074;8.822;2022-11-23T11:35:38;5.75;;;3.58;;
6757;SDS011;3416;53.074;8.822;2022-11-23T11:38:10;6.25;;;3.88;;
6757;SDS011;3416;53.074;8.822;2022-11-23T11:40:43;6.50;;;3.33;;
6757;SDS011;3416;53.074;8.822;2022-11-23T11:43:14;7.40;;;3.83;;
6757;SDS011;3416;53.074;8.822;2022-11-23T11:45:47;5.05;;;3.45;;
6757;SDS011;3416;53.074;8.822;2022-11-23T11:48:19;7.30;;;4.00;;
6757;SDS011;3416;53.074;8.822;2022-11-23T11:50:51;5.57;;;2.95;;
6757;SDS011;3416;53.074;8.822;2022-11-23T11:53:21;3.50;;;2.70;;
6757;SDS011;3416;53.074;8.822;2022-11-23T11:55:51;10.93;;;3.30;;
6757;SDS011;3416;53.074;8.822;2022-11-23T11:58:24;7.32;;;3.28;;
6757;SDS011;3416;53.074;8.822;2022-11-23T12:00:52;4.28;;;2.83;;
6757;SDS011;3416;53.074;8.822;2022-11-23T12:03:26;8.77;;;4.60;;
6757;SDS011;3416;53.074;8.822;2022-11-23T12:06:06;4.55;;;2.15;;
6757;SDS011;3416;53.074;8.822;2022-11-23T12:08:39;6.05;;;3.22;;
6757;SDS011;3416;53.074;8.822;2022-11-23T12:11:12;6.03;;;2.42;;
6757;SDS011;3416;53.074;8.822;2022-11-23T12:13:41;6.68;;;2.60;;
6757;SDS011;3416;53.074;8.822;2022-11-23T12:16:14;4.38;;;2.70;;
6757;SDS011;3416;53.074;8.822;2022-11-23T12:18:51;7.78;;;3.92;;
6757;SDS011;3416;53.074;8.822;2022-11-23T12:21:32;4.50;;;2.83;;
6757;SDS011;3416;53.074;8.822;2022-11-23T12:24:34;7.22;;;3.38;;
6757;SDS011;3416;53.074;8.822;2022-11-23T12:27:18;7.57;;;3.78;;
6757;SDS011;3416;53.074;8.822;2022-11-23T12:30:00;5.13;;;2.60;;
6757;SDS011;3416;53.074;8.822;2022-11-23T12:32:43;7.25;;;2.75;;
6757;SDS011;3416;53.074;8.822;2022-11-23T12:35:24;13.68;;;2.03;;
6757;SDS011;3416;53.074;8.822;2022-11-23T12:38:15;7.18;;;2.80;;
6757;SDS011;3416;53.074;8.822;2022-11-23T12:41:00;3.13;;;1.95;;
6757;SDS011;3416;53.074;8.822;2022-11-23T12:44:20;6.82;;;3.10;;
6757;SDS011;3416;53.074;8.822;2022-11-23T12:47:00;10.82;;;2.90;;
6757;SDS011;3416;53.074;8.822;2022-11-23T12:49:35;5.00;;;2.28;;
6757;SDS011;3416;53.074;8.822;2022-11-23T12:52:14;6.03;;;2.30;;
6757;SDS011;3416;53.074;8.822;2022-11-23T12:54:55;5.47;;;2.25;;
6757;SDS011;3416;53.074;8.822;2022-11-23T12:57:33;8.02;;;3.60;;
6757;SDS011;3416;53.074;8.822;2022-11-23T13:00:06;6.55;;;2.58;;
6757;SDS011;3416;53.074;8.822;2022-11-23T13:02:54;8.32;;;3.75;;
6757;SDS011;3416;53.074;8.822;2022-11-23T13:05:59;6.80;;;2.63;;
6757;SDS011;3416;53.074;8.822;2022-11-23T13:09:14;8.10;;;3.67;;
6757;SDS011;3416;53.074;8.822;2022-11-23T13:12:06;11.27;;;3.05;;
6757;SDS011;3416;53.074;8.822;2022-11-23T13:14:41;6.35;;;1.80;;
6757;SDS011;3416;53.074;8.822;2022-11-23T13:17:17;6.65;;;2.60;;
6757;SDS011;3416;53.074;8.822;2022-11-23T13:20:09;5.60;;;1.80;;
6757;SDS011;3416;53.074;8.822;2022-11-23T13:22:54;6.82;;;2.28;;
6757;SDS011;3416;53.074;8.822;2022-11-23T13:25:25;6.30;;;3.17;;
6757;SDS011;3416;53.074;8.822;2022-11-23T13:27:57;11.25;;;2.38;;
6757;SDS011;3416;53.074;8.822;2022-11-23T13:30:32;8.30;;;2.00;;
6757;SDS011;3416;53.074;8.822;2022-11-23T13:33:02;5.40;;;2.20;;
6757;SDS011;3416;53.074;8.822;2022-11-23T13:35:58;10.40;;;2.20;;
6757;SDS011;3416;53.074;8.822;2022-11-23T13:38:26;7.20;;;2.22;;
6757;SDS011;3416;53.074;8.822;2022-11-23T13:41:18;9.00;;;2.70;;
6757;SDS011;3416;53.074;8.822;2022-11-23T13:44:21;5.85;;;2.15;;
6757;SDS011;3416;53.074;8.822;2022-11-23T13:47:00;4.85;;;2.13;;
6757;SDS011;3416;53.074;8.822;2022-11-23T13:49:42;2.90;;;2.00;;
6757;SDS011;3416;53.074;8.822;2022-11-23T13:55:00;4.45;;;2.10;;
6757;SDS011;3416;53.074;8.822;2022-11-23T13:57:31;8.30;;;2.03;;
6757;SDS011;3416;53.074;8.822;2022-11-23T14:06:02;7.45;;;2.03;;
6757;SDS011;3416;53.074;8.822;2022-11-23T14:08:32;3.20;;;2.35;;
6757;SDS011;3416;53.074;8.822;2022-11-23T14:11:03;2.38;;;1.77;;
6757;SDS011;3416;53.074;8.822;2022-11-23T14:13:37;7.43;;;2.40;;
6757;SDS011;3416;53.074;8.822;2022-11-23T14:16:08;5.97;;;2.25;;
6757;SDS011;3416;53.074;8.822;2022-11-23T14:18:48;5.30;;;2.15;;
6757;SDS011;3416;53.074;8.822;2022-11-23T14:21:29;3.13;;;1.77;;
6757;SDS011;3416;53.074;8.822;2022-11-23T14:24:22;7.82;;;1.98;;
6757;SDS011;3416;53.074;8.822;2022-11-23T14:27:15;5.57;;;1.85;;
6757;SDS011;3416;53.074;8.822;2022-11-23T14:32:55;7.32;;;1.67;;
6757;SDS011;3416;53.074;8.822;2022-11-23T14:35:32;6.68;;;1.70;;
6757;SDS011;3416;53.074;8.822;2022-11-23T14:38:20;7.95;;;2.53;;
6757;SDS011;3416;53.074;8.822;2022-11-23T14:41:13;7.68;;;2.70;;
6757;SDS011;3416;53.074;8.822;2022-11-23T14:43:42;5.28;;;2.10;;
6757;SDS011;3416;53.074;8.822;2022-11-23T14:46:14;7.43;;;3.55;;
6757;SDS011;3416;53.074;8.822;2022-11-23T14:48:43;4.70;;;1.98;;
6757;SDS011;3416;53.074;8.822;2022-11-23T14:51:13;9.35;;;2.33;;
6757;SDS011;3416;53.074;8.822;2022-11-23T14:53:44;5.78;;;2.60;;
6757;SDS011;3416;53.074;8.822;2022-11-23T14:56:28;6.90;;;3.05;;
6757;SDS011;3416;53.074;8.822;2022-11-23T14:58:59;7.78;;;3.40;;
6757;SDS011;3416;53.074;8.822;2022-11-23T15:01:31;5.90;;;2.58;;
6757;SDS011;3416;53.074;8.822;2022-11-23T15:04:05;3.05;;;2.75;;
6757;SDS011;3416;53.074;8.822;2022-11-23T15:06:38;6.90;;;3.47;;
6757;SDS011;3416;53.074;8.822;2022-11-23T15:09:11;5.82;;;3.00;;
6757;SDS011;3416;53.074;8.822;2022-11-23T15:11:46;9.35;;;2.83;;
6757;SDS011;3416;53.074;8.822;2022-11-23T15:14:17;10.63;;;3.03;;
6757;SDS011;3416;53.074;8.822;2022-11-23T15:16:45;4.50;;;2.92;;
6757;SDS011;3416;53.074;8.822;2022-11-23T15:19:16;6.07;;;2.75;;
6757;SDS011;3416;53.074;8.822;2022-11-23T15:21:44;10.07;;;3.15;;
6757;SDS011;3416;53.074;8.822;2022-11-23T15:24:18;6.13;;;2.95;;
6757;SDS011;3416;53.074;8.822;2022-11-23T15:26:48;8.05;;;2.67;;
6757;SDS011;3416;53.074;8.822;2022-11-23T15:29:28;10.27;;;2.58;;
6757;SDS011;3416;53.074;8.822;2022-11-23T15:31:56;4.15;;;2.65;;
6757;SDS011;3416;53.074;8.822;2022-11-23T15:34:24;8.10;;;2.58;;
6757;SDS011;3416;53.074;8.822;2022-11-23T15:36:51;9.48;;;3.33;;
6757;SDS011;3416;53.074;8.822;2022-11-23T15:39:20;8.77;;;2.90;;
6757;SDS011;3416;53.074;8.822;2022-11-23T15:41:49;4.57;;;2.20;;
6757;SDS011;3416;53.074;8.822;2022-11-23T15:44:20;4.40;;;2.30;;
6757;SDS011;3416;53.074;8.822;2022-11-23T15:46:48;6.53;;;2.35;;
6757;SDS011;3416;53.074;8.822;2022-11-23T15:49:18;8.13;;;3.42;;
6757;SDS011;3416;53.074;8.822;2022-11-23T15:51:45;6.18;;;2.17;;
6757;SDS011;3416;53.074;8.822;2022-11-23T15:54:14;5.00;;;2.60;;
6757;SDS011;3416;53.074;8.822;2022-11-23T15:56:44;5.97;;;2.53;;